sensor_id;sensor_type;location;lat;lon;timestamp;P1;durP1;ratioP1;P2;durP2;ratioP2
41221;SDS011;26952;42.884;23.918;2023-03-07T00:00:05;9.38;;;8.57;;
41221;SDS011;26952;42.884;23.918;2023-03-07T00:02:32;9.38;;;8.38;;
41221;SDS011;26952;42.884;23.918;2023-03-07T00:04:57;12.68;;;10.73;;
41221;SDS011;26952;42.884;23.918;2023-03-07T00:07:23;9.77;;;8.98;;
41221;SDS011;26952;42.884;23.918;2023-03-07T00:09:48;9.82;;;8.93;;
41221;SDS011;26952;42.884;23.918;2023-03-07T00:12:14;10.45;;;9.55;;
41221;SDS011;26952;42.884;23.918;2023-03-07T00:14:39;9.93;;;9.13;;
41221;SDS011;26952;42.884;23.918;2023-03-07T00:17:04;10.68;;;9.73;;
41221;SDS011;26952;42.884;23.918;2023-03-07T00:19:30;10.30;;;9.48;;
41221;SDS011;26952;42.884;23.918;2023-03-07T00:21:56;10.57;;;9.20;;
41221;SDS011;26952;42.884;23.918;2023-03-07T00:24:21;11.65;;;9.60;;
41221;SDS011;26952;42.884;23.918;2023-03-07T00:26:47;10.57;;;9.73;;
41221;SDS011;26952;42.884;23.918;2023-03-07T00:29:12;11.52;;;10.63;;
41221;SDS011;26952;42.884;23.918;2023-03-07T00:31:37;12.93;;;11.73;;
41221;SDS011;26952;42.884;23.918;2023-03-07T00:34:03;13.70;;;12.60;;
41221;SDS011;26952;42.884;23.918;2023-03-07T00:36:28;12.73;;;11.73;;
41221;SDS011;26952;42.884;23.918;2023-03-07T00:38:54;14.50;;;13.40;;
41221;SDS011;26952;42.884;23.918;2023-03-07T00:41:20;13.23;;;12.23;;
41221;SDS011;26952;42.884;23.918;2023-03-07T00:43:47;14.25;;;12.95;;
41221;SDS011;26952;42.884;23.918;2023-03-07T00:46:16;14.00;;;12.60;;
41221;SDS011;26952;42.884;23.918;2023-03-07T00:51:09;11.52;;;9.75;;
41221;SDS011;26952;42.884;23.918;2023-03-07T00:53:36;11.52;;;10.55;;
41221;SDS011;26952;42.884;23.918;2023-03-07T00:56:03;12.80;;;11.50;;
41221;SDS011;26952;42.884;23.918;2023-03-07T00:58:35;14.45;;;13.25;;
41221;SDS011;26952;42.884;23.918;2023-03-07T01:01:01;13.65;;;12.45;;
41221;SDS011;26952;42.884;23.918;2023-03-07T01:03:29;12.20;;;11.20;;
41221;SDS011;26952;42.884;23.918;2023-03-07T01:05:54;12.95;;;11.93;;
41221;SDS011;26952;42.884;23.918;2023-03-07T01:08:20;12.23;;;11.02;;
41221;SDS011;26952;42.884;23.918;2023-03-07T01:10:46;11.82;;;10.77;;
41221;SDS011;26952;42.884;23.918;2023-03-07T01:13:15;11.13;;;9.52;;
41221;SDS011;26952;42.884;23.918;2023-03-07T01:15:42;9.48;;;7.38;;
41221;SDS011;26952;42.884;23.918;2023-03-07T01:18:08;8.63;;;7.50;;
41221;SDS011;26952;42.884;23.918;2023-03-07T01:20:35;8.90;;;7.85;;
41221;SDS011;26952;42.884;23.918;2023-03-07T01:23:01;11.10;;;10.00;;
41221;SDS011;26952;42.884;23.918;2023-03-07T01:25:27;15.25;;;13.85;;
41221;SDS011;26952;42.884;23.918;2023-03-07T01:27:53;15.20;;;14.00;;
41221;SDS011;26952;42.884;23.918;2023-03-07T01:30:23;16.33;;;14.70;;
41221;SDS011;26952;42.884;23.918;2023-03-07T01:32:55;16.42;;;14.93;;
41221;SDS011;26952;42.884;23.918;2023-03-07T01:35:22;18.73;;;17.25;;
41221;SDS011;26952;42.884;23.918;2023-03-07T01:37:48;17.38;;;16.02;;
41221;SDS011;26952;42.884;23.918;2023-03-07T01:40:14;18.98;;;17.42;;
41221;SDS011;26952;42.884;23.918;2023-03-07T01:42:40;19.23;;;17.77;;
41221;SDS011;26952;42.884;23.918;2023-03-07T01:47:36;20.73;;;19.25;;
41221;SDS011;26952;42.884;23.918;2023-03-07T01:50:04;20.02;;;18.58;;
41221;SDS011;26952;42.884;23.918;2023-03-07T01:52:46;22.63;;;21.08;;
41221;SDS011;26952;42.884;23.918;2023-03-07T01:55:18;21.08;;;19.40;;
41221;SDS011;26952;42.884;23.918;2023-03-07T01:57:47;22.87;;;21.07;;
41221;SDS011;26952;42.884;23.918;2023-03-07T02:00:15;18.13;;;16.85;;
41221;SDS011;26952;42.884;23.918;2023-03-07T02:02:50;18.67;;;17.25;;
41221;SDS011;26952;42.884;23.918;2023-03-07T02:05:26;19.15;;;17.38;;
41221;SDS011;26952;42.884;23.918;2023-03-07T02:07:59;14.77;;;13.57;;
41221;SDS011;26952;42.884;23.918;2023-03-07T02:10:26;11.90;;;10.70;;
41221;SDS011;26952;42.884;23.918;2023-03-07T02:12:54;11.52;;;10.43;;
41221;SDS011;26952;42.884;23.918;2023-03-07T02:15:20;10.43;;;9.52;;
41221;SDS011;26952;42.884;23.918;2023-03-07T02:17:46;10.98;;;9.43;;
41221;SDS011;26952;42.884;23.918;2023-03-07T02:23:04;9.88;;;8.85;;
41221;SDS011;26952;42.884;23.918;2023-03-07T02:28:04;11.85;;;9.98;;
41221;SDS011;26952;42.884;23.918;2023-03-07T02:30:32;10.02;;;9.23;;
41221;SDS011;26952;42.884;23.918;2023-03-07T02:33:00;9.43;;;8.43;;
41221;SDS011;26952;42.884;23.918;2023-03-07T02:35:25;10.50;;;9.50;;
41221;SDS011;26952;42.884;23.918;2023-03-07T02:37:52;10.77;;;9.68;;
41221;SDS011;26952;42.884;23.918;2023-03-07T02:40:24;10.52;;;9.43;;
41221;SDS011;26952;42.884;23.918;2023-03-07T02:42:53;8.95;;;8.15;;
41221;SDS011;26952;42.884;23.918;2023-03-07T02:45:21;9.38;;;8.50;;
41221;SDS011;26952;42.884;23.918;2023-03-07T02:47:46;8.95;;;8.15;;
41221;SDS011;26952;42.884;23.918;2023-03-07T02:50:13;9.07;;;8.18;;
41221;SDS011;26952;42.884;23.918;2023-03-07T02:52:39;9.02;;;7.95;;
41221;SDS011;26952;42.884;23.918;2023-03-07T02:55:05;7.85;;;7.05;;
41221;SDS011;26952;42.884;23.918;2023-03-07T02:57:31;10.20;;;7.15;;
41221;SDS011;26952;42.884;23.918;2023-03-07T02:59:57;8.00;;;7.05;;
41221;SDS011;26952;42.884;23.918;2023-03-07T03:02:23;8.25;;;6.97;;
41221;SDS011;26952;42.884;23.918;2023-03-07T03:04:49;8.63;;;6.82;;
41221;SDS011;26952;42.884;23.918;2023-03-07T03:07:14;8.27;;;6.72;;
41221;SDS011;26952;42.884;23.918;2023-03-07T03:09:40;8.70;;;6.43;;
41221;SDS011;26952;42.884;23.918;2023-03-07T03:12:05;7.57;;;6.72;;
41221;SDS011;26952;42.884;23.918;2023-03-07T03:14:31;8.88;;;6.70;;
41221;SDS011;26952;42.884;23.918;2023-03-07T03:16:56;6.90;;;6.20;;
41221;SDS011;26952;42.884;23.918;2023-03-07T03:19:22;7.80;;;6.55;;
41221;SDS011;26952;42.884;23.918;2023-03-07T03:21:47;7.25;;;5.75;;
41221;SDS011;26952;42.884;23.918;2023-03-07T03:24:12;8.15;;;6.00;;
41221;SDS011;26952;42.884;23.918;2023-03-07T03:26:38;8.02;;;6.07;;
41221;SDS011;26952;42.884;23.918;2023-03-07T03:29:03;7.65;;;6.43;;
41221;SDS011;26952;42.884;23.918;2023-03-07T03:31:30;10.70;;;6.95;;
41221;SDS011;26952;42.884;23.918;2023-03-07T03:33:56;9.13;;;8.27;;
41221;SDS011;26952;42.884;23.918;2023-03-07T03:36:23;10.68;;;9.65;;
41221;SDS011;26952;42.884;23.918;2023-03-07T03:38:55;12.57;;;11.40;;
41221;SDS011;26952;42.884;23.918;2023-03-07T03:41:22;13.98;;;12.73;;
41221;SDS011;26952;42.884;23.918;2023-03-07T03:43:48;11.75;;;10.77;;
41221;SDS011;26952;42.884;23.918;2023-03-07T03:46:15;12.13;;;10.00;;
41221;SDS011;26952;42.884;23.918;2023-03-07T03:48:43;9.73;;;8.82;;
41221;SDS011;26952;42.884;23.918;2023-03-07T03:51:09;13.13;;;8.57;;
41221;SDS011;26952;42.884;23.918;2023-03-07T03:53:37;9.07;;;8.13;;
41221;SDS011;26952;42.884;23.918;2023-03-07T03:56:05;7.70;;;6.90;;
41221;SDS011;26952;42.884;23.918;2023-03-07T03:58:33;8.00;;;7.20;;
41221;SDS011;26952;42.884;23.918;2023-03-07T04:01:00;7.63;;;6.88;;
41221;SDS011;26952;42.884;23.918;2023-03-07T04:03:30;7.47;;;6.78;;
41221;SDS011;26952;42.884;23.918;2023-03-07T04:05:59;9.00;;;7.85;;
41221;SDS011;26952;42.884;23.918;2023-03-07T04:08:28;7.30;;;6.53;;
41221;SDS011;26952;42.884;23.918;2023-03-07T04:10:54;8.18;;;6.82;;
41221;SDS011;26952;42.884;23.918;2023-03-07T04:13:19;7.88;;;7.18;;
41221;SDS011;26952;42.884;23.918;2023-03-07T04:15:45;9.93;;;8.40;;
41221;SDS011;26952;42.884;23.918;2023-03-07T04:18:10;10.77;;;9.15;;
41221;SDS011;26952;42.884;23.918;2023-03-07T04:20:36;11.23;;;10.10;;
41221;SDS011;26952;42.884;23.918;2023-03-07T04:23:01;9.60;;;8.57;;
41221;SDS011;26952;42.884;23.918;2023-03-07T04:25:27;9.55;;;8.55;;
41221;SDS011;26952;42.884;23.918;2023-03-07T04:27:52;9.52;;;8.63;;
41221;SDS011;26952;42.884;23.918;2023-03-07T04:30:18;10.10;;;9.23;;
41221;SDS011;26952;42.884;23.918;2023-03-07T04:32:44;9.38;;;8.48;;
41221;SDS011;26952;42.884;23.918;2023-03-07T04:35:09;10.43;;;9.35;;
41221;SDS011;26952;42.884;23.918;2023-03-07T04:37:34;10.30;;;9.30;;
41221;SDS011;26952;42.884;23.918;2023-03-07T04:40:00;10.70;;;9.70;;
41221;SDS011;26952;42.884;23.918;2023-03-07T04:42:25;13.68;;;12.68;;
41221;SDS011;26952;42.884;23.918;2023-03-07T04:44:50;13.23;;;12.02;;
41221;SDS011;26952;42.884;23.918;2023-03-07T04:47:16;17.88;;;16.23;;
41221;SDS011;26952;42.884;23.918;2023-03-07T04:49:41;16.65;;;15.27;;
41221;SDS011;26952;42.884;23.918;2023-03-07T04:52:06;16.63;;;15.32;;
41221;SDS011;26952;42.884;23.918;2023-03-07T04:54:32;17.80;;;16.35;;
41221;SDS011;26952;42.884;23.918;2023-03-07T04:56:57;18.02;;;16.83;;
41221;SDS011;26952;42.884;23.918;2023-03-07T04:59:23;15.35;;;14.30;;
41221;SDS011;26952;42.884;23.918;2023-03-07T05:01:48;16.95;;;15.68;;
41221;SDS011;26952;42.884;23.918;2023-03-07T05:04:13;13.45;;;12.35;;
41221;SDS011;26952;42.884;23.918;2023-03-07T05:06:39;13.00;;;11.73;;
41221;SDS011;26952;42.884;23.918;2023-03-07T05:09:04;14.43;;;13.30;;
41221;SDS011;26952;42.884;23.918;2023-03-07T05:11:30;14.13;;;13.00;;
41221;SDS011;26952;42.884;23.918;2023-03-07T05:13:55;15.85;;;14.63;;
41221;SDS011;26952;42.884;23.918;2023-03-07T05:16:21;16.65;;;15.48;;
41221;SDS011;26952;42.884;23.918;2023-03-07T05:18:46;17.77;;;15.98;;
41221;SDS011;26952;42.884;23.918;2023-03-07T05:21:11;20.95;;;18.75;;
41221;SDS011;26952;42.884;23.918;2023-03-07T05:23:37;21.83;;;19.50;;
41221;SDS011;26952;42.884;23.918;2023-03-07T05:26:02;21.00;;;17.98;;
41221;SDS011;26952;42.884;23.918;2023-03-07T05:28:28;27.63;;;21.98;;
41221;SDS011;26952;42.884;23.918;2023-03-07T05:30:53;25.75;;;23.00;;
41221;SDS011;26952;42.884;23.918;2023-03-07T05:33:18;23.48;;;21.38;;
41221;SDS011;26952;42.884;23.918;2023-03-07T05:35:44;23.98;;;21.73;;
41221;SDS011;26952;42.884;23.918;2023-03-07T05:38:10;22.67;;;20.85;;
41221;SDS011;26952;42.884;23.918;2023-03-07T05:40:36;23.40;;;21.50;;
41221;SDS011;26952;42.884;23.918;2023-03-07T05:43:01;23.10;;;21.30;;
41221;SDS011;26952;42.884;23.918;2023-03-07T05:45:27;23.33;;;21.15;;
41221;SDS011;26952;42.884;23.918;2023-03-07T05:47:52;23.52;;;21.70;;
41221;SDS011;26952;42.884;23.918;2023-03-07T05:50:18;23.85;;;22.05;;
41221;SDS011;26952;42.884;23.918;2023-03-07T05:52:44;31.67;;;28.25;;
41221;SDS011;26952;42.884;23.918;2023-03-07T05:55:10;30.30;;;26.55;;
41221;SDS011;26952;42.884;23.918;2023-03-07T05:57:35;35.33;;;27.85;;
41221;SDS011;26952;42.884;23.918;2023-03-07T06:00:01;29.80;;;24.27;;
41221;SDS011;26952;42.884;23.918;2023-03-07T06:02:30;24.55;;;21.08;;
41221;SDS011;26952;42.884;23.918;2023-03-07T06:04:55;24.40;;;21.45;;
41221;SDS011;26952;42.884;23.918;2023-03-07T06:07:20;37.10;;;33.70;;
41221;SDS011;26952;42.884;23.918;2023-03-07T06:09:46;20.15;;;18.33;;
41221;SDS011;26952;42.884;23.918;2023-03-07T06:12:11;21.13;;;19.13;;
41221;SDS011;26952;42.884;23.918;2023-03-07T06:14:37;18.85;;;17.15;;
41221;SDS011;26952;42.884;23.918;2023-03-07T06:17:03;19.17;;;17.48;;
41221;SDS011;26952;42.884;23.918;2023-03-07T06:19:29;19.02;;;17.52;;
41221;SDS011;26952;42.884;23.918;2023-03-07T06:21:55;20.05;;;18.10;;
41221;SDS011;26952;42.884;23.918;2023-03-07T06:24:20;19.77;;;18.38;;
41221;SDS011;26952;42.884;23.918;2023-03-07T06:26:46;18.10;;;16.80;;
41221;SDS011;26952;42.884;23.918;2023-03-07T06:29:11;18.30;;;16.80;;
41221;SDS011;26952;42.884;23.918;2023-03-07T06:31:36;13.65;;;11.30;;
41221;SDS011;26952;42.884;23.918;2023-03-07T06:34:02;12.07;;;10.93;;
41221;SDS011;26952;42.884;23.918;2023-03-07T06:36:27;13.23;;;12.02;;
41221;SDS011;26952;42.884;23.918;2023-03-07T06:38:52;13.63;;;11.68;;
41221;SDS011;26952;42.884;23.918;2023-03-07T06:41:18;17.27;;;15.73;;
41221;SDS011;26952;42.884;23.918;2023-03-07T06:43:43;18.05;;;16.63;;
41221;SDS011;26952;42.884;23.918;2023-03-07T06:46:09;16.83;;;15.57;;
41221;SDS011;26952;42.884;23.918;2023-03-07T06:48:34;17.80;;;16.30;;
41221;SDS011;26952;42.884;23.918;2023-03-07T06:51:05;18.15;;;16.80;;
41221;SDS011;26952;42.884;23.918;2023-03-07T06:53:31;17.92;;;16.33;;
41221;SDS011;26952;42.884;23.918;2023-03-07T06:55:57;19.17;;;17.65;;
41221;SDS011;26952;42.884;23.918;2023-03-07T06:58:22;19.58;;;17.92;;
41221;SDS011;26952;42.884;23.918;2023-03-07T07:00:47;19.45;;;17.88;;
41221;SDS011;26952;42.884;23.918;2023-03-07T07:03:13;19.60;;;18.17;;
41221;SDS011;26952;42.884;23.918;2023-03-07T07:05:39;20.85;;;19.25;;
41221;SDS011;26952;42.884;23.918;2023-03-07T07:08:04;20.20;;;18.60;;
41221;SDS011;26952;42.884;23.918;2023-03-07T07:10:30;25.70;;;24.00;;
41221;SDS011;26952;42.884;23.918;2023-03-07T07:12:56;26.33;;;24.73;;
41221;SDS011;26952;42.884;23.918;2023-03-07T07:15:22;27.52;;;25.63;;
41221;SDS011;26952;42.884;23.918;2023-03-07T07:17:49;22.35;;;20.77;;
41221;SDS011;26952;42.884;23.918;2023-03-07T07:20:15;20.73;;;19.23;;
41221;SDS011;26952;42.884;23.918;2023-03-07T07:22:40;22.25;;;20.65;;
41221;SDS011;26952;42.884;23.918;2023-03-07T07:25:06;21.70;;;20.00;;
41221;SDS011;26952;42.884;23.918;2023-03-07T07:27:32;20.20;;;18.58;;
41221;SDS011;26952;42.884;23.918;2023-03-07T07:29:57;21.58;;;19.88;;
41221;SDS011;26952;42.884;23.918;2023-03-07T07:32:22;21.25;;;19.48;;
41221;SDS011;26952;42.884;23.918;2023-03-07T07:34:48;13.25;;;11.98;;
41221;SDS011;26952;42.884;23.918;2023-03-07T07:37:13;15.95;;;14.25;;
41221;SDS011;26952;42.884;23.918;2023-03-07T07:39:38;15.95;;;14.57;;
41221;SDS011;26952;42.884;23.918;2023-03-07T07:42:07;16.17;;;14.75;;
41221;SDS011;26952;42.884;23.918;2023-03-07T07:44:33;14.93;;;13.63;;
41221;SDS011;26952;42.884;23.918;2023-03-07T07:46:58;12.38;;;11.18;;
41221;SDS011;26952;42.884;23.918;2023-03-07T07:49:24;12.10;;;11.00;;
41221;SDS011;26952;42.884;23.918;2023-03-07T07:51:50;10.23;;;9.27;;
41221;SDS011;26952;42.884;23.918;2023-03-07T07:54:15;9.48;;;8.38;;
41221;SDS011;26952;42.884;23.918;2023-03-07T07:56:41;13.07;;;11.73;;
41221;SDS011;26952;42.884;23.918;2023-03-07T07:59:06;11.30;;;10.38;;
41221;SDS011;26952;42.884;23.918;2023-03-07T08:01:31;13.30;;;12.40;;
41221;SDS011;26952;42.884;23.918;2023-03-07T08:03:57;16.00;;;14.88;;
41221;SDS011;26952;42.884;23.918;2023-03-07T08:06:24;29.10;;;27.30;;
41221;SDS011;26952;42.884;23.918;2023-03-07T08:08:51;29.42;;;27.63;;
41221;SDS011;26952;42.884;23.918;2023-03-07T08:11:17;30.20;;;27.92;;
41221;SDS011;26952;42.884;23.918;2023-03-07T08:13:44;11.02;;;10.23;;
41221;SDS011;26952;42.884;23.918;2023-03-07T08:16:10;17.23;;;16.02;;
41221;SDS011;26952;42.884;23.918;2023-03-07T08:18:38;19.00;;;17.98;;
41221;SDS011;26952;42.884;23.918;2023-03-07T08:21:04;22.55;;;21.15;;
41221;SDS011;26952;42.884;23.918;2023-03-07T08:23:30;16.15;;;15.15;;
41221;SDS011;26952;42.884;23.918;2023-03-07T08:26:00;14.50;;;13.15;;
41221;SDS011;26952;42.884;23.918;2023-03-07T08:28:26;11.82;;;11.02;;
41221;SDS011;26952;42.884;23.918;2023-03-07T08:30:52;11.40;;;10.50;;
41221;SDS011;26952;42.884;23.918;2023-03-07T08:33:17;15.30;;;14.20;;
41221;SDS011;26952;42.884;23.918;2023-03-07T08:35:42;15.05;;;13.95;;
41221;SDS011;26952;42.884;23.918;2023-03-07T08:38:08;18.08;;;16.95;;
41221;SDS011;26952;42.884;23.918;2023-03-07T08:40:33;15.10;;;14.00;;
41221;SDS011;26952;42.884;23.918;2023-03-07T08:42:58;14.73;;;13.65;;
41221;SDS011;26952;42.884;23.918;2023-03-07T08:45:24;15.73;;;14.65;;
41221;SDS011;26952;42.884;23.918;2023-03-07T08:47:53;12.13;;;11.32;;
41221;SDS011;26952;42.884;23.918;2023-03-07T08:50:19;10.70;;;9.95;;
41221;SDS011;26952;42.884;23.918;2023-03-07T08:52:49;12.27;;;11.55;;
41221;SDS011;26952;42.884;23.918;2023-03-07T08:55:15;14.18;;;13.35;;
41221;SDS011;26952;42.884;23.918;2023-03-07T08:57:40;11.50;;;10.48;;
41221;SDS011;26952;42.884;23.918;2023-03-07T09:00:06;9.20;;;6.13;;
41221;SDS011;26952;42.884;23.918;2023-03-07T09:02:33;6.82;;;6.22;;
41221;SDS011;26952;42.884;23.918;2023-03-07T09:04:59;7.43;;;6.82;;
41221;SDS011;26952;42.884;23.918;2023-03-07T09:07:24;13.07;;;12.18;;
41221;SDS011;26952;42.884;23.918;2023-03-07T09:09:51;15.52;;;14.63;;
41221;SDS011;26952;42.884;23.918;2023-03-07T09:12:16;15.73;;;14.15;;
41221;SDS011;26952;42.884;23.918;2023-03-07T09:14:42;10.85;;;10.10;;
41221;SDS011;26952;42.884;23.918;2023-03-07T09:17:07;13.43;;;12.63;;
41221;SDS011;26952;42.884;23.918;2023-03-07T09:19:33;11.52;;;10.73;;
41221;SDS011;26952;42.884;23.918;2023-03-07T09:21:59;14.30;;;13.45;;
41221;SDS011;26952;42.884;23.918;2023-03-07T09:24:24;9.40;;;8.77;;
41221;SDS011;26952;42.884;23.918;2023-03-07T09:26:50;10.88;;;9.63;;
41221;SDS011;26952;42.884;23.918;2023-03-07T09:29:16;13.18;;;12.27;;
41221;SDS011;26952;42.884;23.918;2023-03-07T09:31:42;9.20;;;8.60;;
41221;SDS011;26952;42.884;23.918;2023-03-07T09:34:08;11.50;;;10.75;;
41221;SDS011;26952;42.884;23.918;2023-03-07T09:36:34;12.77;;;11.85;;
41221;SDS011;26952;42.884;23.918;2023-03-07T09:39:01;11.50;;;10.88;;
41221;SDS011;26952;42.884;23.918;2023-03-07T09:44:14;5.95;;;4.38;;
41221;SDS011;26952;42.884;23.918;2023-03-07T09:49:56;3.95;;;3.67;;
41221;SDS011;26952;42.884;23.918;2023-03-07T09:52:25;5.50;;;5.00;;
41221;SDS011;26952;42.884;23.918;2023-03-07T09:58:06;5.57;;;5.03;;
41221;SDS011;26952;42.884;23.918;2023-03-07T10:00:26;6.35;;;5.80;;
41221;SDS011;26952;42.884;23.918;2023-03-07T10:03:05;8.73;;;8.02;;
41221;SDS011;26952;42.884;23.918;2023-03-07T10:05:51;7.10;;;6.60;;
41221;SDS011;26952;42.884;23.918;2023-03-07T10:08:24;7.28;;;6.78;;
41221;SDS011;26952;42.884;23.918;2023-03-07T10:24:21;6.75;;;6.35;;
41221;SDS011;26952;42.884;23.918;2023-03-07T10:29:21;6.45;;;5.97;;
41221;SDS011;26952;42.884;23.918;2023-03-07T10:31:50;6.57;;;6.18;;
41221;SDS011;26952;42.884;23.918;2023-03-07T10:34:27;5.78;;;5.30;;
41221;SDS011;26952;42.884;23.918;2023-03-07T10:36:55;6.97;;;6.47;;
41221;SDS011;26952;42.884;23.918;2023-03-07T10:39:31;6.22;;;5.82;;
41221;SDS011;26952;42.884;23.918;2023-03-07T10:42:03;5.80;;;5.28;;
41221;SDS011;26952;42.884;23.918;2023-03-07T10:44:30;5.72;;;5.32;;
41221;SDS011;26952;42.884;23.918;2023-03-07T10:46:58;5.28;;;4.80;;
41221;SDS011;26952;42.884;23.918;2023-03-07T10:49:35;6.20;;;5.55;;
41221;SDS011;26952;42.884;23.918;2023-03-07T10:52:05;5.03;;;4.63;;
41221;SDS011;26952;42.884;23.918;2023-03-07T10:54:41;5.03;;;4.63;;
41221;SDS011;26952;42.884;23.918;2023-03-07T10:59:36;5.25;;;4.85;;
41221;SDS011;26952;42.884;23.918;2023-03-07T11:02:20;5.20;;;4.72;;
41221;SDS011;26952;42.884;23.918;2023-03-07T11:04:52;5.00;;;4.40;;
41221;SDS011;26952;42.884;23.918;2023-03-07T11:09:52;4.57;;;4.22;;
41221;SDS011;26952;42.884;23.918;2023-03-07T11:12:18;4.80;;;4.43;;
41221;SDS011;26952;42.884;23.918;2023-03-07T11:20:20;5.53;;;5.07;;
41221;SDS011;26952;42.884;23.918;2023-03-07T11:25:38;5.40;;;5.10;;
41221;SDS011;26952;42.884;23.918;2023-03-07T11:28:09;6.07;;;5.78;;
41221;SDS011;26952;42.884;23.918;2023-03-07T11:33:55;6.07;;;5.65;;
41221;SDS011;26952;42.884;23.918;2023-03-07T11:36:35;5.35;;;4.95;;
41221;SDS011;26952;42.884;23.918;2023-03-07T11:41:29;5.60;;;5.30;;
41221;SDS011;26952;42.884;23.918;2023-03-07T11:55:46;4.47;;;4.18;;
41221;SDS011;26952;42.884;23.918;2023-03-07T12:07:03;4.70;;;4.30;;
41221;SDS011;26952;42.884;23.918;2023-03-07T12:12:46;5.03;;;4.63;;
41221;SDS011;26952;42.884;23.918;2023-03-07T12:23:29;5.50;;;5.13;;
41221;SDS011;26952;42.884;23.918;2023-03-07T12:26:12;5.75;;;5.35;;
41221;SDS011;26952;42.884;23.918;2023-03-07T12:28:46;5.72;;;5.32;;
41221;SDS011;26952;42.884;23.918;2023-03-07T12:34:02;6.53;;;6.13;;
41221;SDS011;26952;42.884;23.918;2023-03-07T12:36:43;5.13;;;4.72;;
41221;SDS011;26952;42.884;23.918;2023-03-07T12:39:16;4.70;;;4.32;;
41221;SDS011;26952;42.884;23.918;2023-03-07T12:41:53;4.60;;;4.30;;
41221;SDS011;26952;42.884;23.918;2023-03-07T12:47:16;4.75;;;4.45;;
41221;SDS011;26952;42.884;23.918;2023-03-07T12:52:21;5.43;;;5.03;;
41221;SDS011;26952;42.884;23.918;2023-03-07T12:54:55;5.05;;;4.65;;
41221;SDS011;26952;42.884;23.918;2023-03-07T12:57:29;5.43;;;4.93;;
41221;SDS011;26952;42.884;23.918;2023-03-07T13:00:02;5.90;;;5.50;;
41221;SDS011;26952;42.884;23.918;2023-03-07T13:02:33;6.72;;;6.22;;
41221;SDS011;26952;42.884;23.918;2023-03-07T13:05:04;6.30;;;6.00;;
41221;SDS011;26952;42.884;23.918;2023-03-07T13:07:30;5.68;;;5.28;;
41221;SDS011;26952;42.884;23.918;2023-03-07T13:09:58;6.57;;;6.03;;
41221;SDS011;26952;42.884;23.918;2023-03-07T13:27:57;6.43;;;6.03;;
41221;SDS011;26952;42.884;23.918;2023-03-07T13:30:25;7.40;;;7.00;;
41221;SDS011;26952;42.884;23.918;2023-03-07T13:37:57;6.53;;;6.03;;
41221;SDS011;26952;42.884;23.918;2023-03-07T13:45:54;7.55;;;7.05;;
41221;SDS011;26952;42.884;23.918;2023-03-07T14:03:58;5.07;;;4.78;;
41221;SDS011;26952;42.884;23.918;2023-03-07T14:06:31;5.90;;;5.45;;
41221;SDS011;26952;42.884;23.918;2023-03-07T14:09:00;5.22;;;4.72;;
41221;SDS011;26952;42.884;23.918;2023-03-07T14:23:19;4.45;;;4.13;;
41221;SDS011;26952;42.884;23.918;2023-03-07T14:25:50;12.73;;;5.53;;
41221;SDS011;26952;42.884;23.918;2023-03-07T14:28:23;5.30;;;4.88;;
41221;SDS011;26952;42.884;23.918;2023-03-07T14:33:19;5.35;;;5.05;;
41221;SDS011;26952;42.884;23.918;2023-03-07T14:35:45;5.30;;;4.90;;
41221;SDS011;26952;42.884;23.918;2023-03-07T14:38:21;5.15;;;4.75;;
41221;SDS011;26952;42.884;23.918;2023-03-07T14:51:54;4.22;;;3.83;;
41221;SDS011;26952;42.884;23.918;2023-03-07T14:54:22;4.20;;;3.92;;
41221;SDS011;26952;42.884;23.918;2023-03-07T14:56:53;4.65;;;4.35;;
41221;SDS011;26952;42.884;23.918;2023-03-07T14:59:19;4.43;;;4.18;;
41221;SDS011;26952;42.884;23.918;2023-03-07T15:01:46;4.28;;;3.88;;
41221;SDS011;26952;42.884;23.918;2023-03-07T15:04:23;4.32;;;3.92;;
41221;SDS011;26952;42.884;23.918;2023-03-07T15:06:57;5.45;;;4.25;;
41221;SDS011;26952;42.884;23.918;2023-03-07T15:09:25;3.55;;;3.35;;
41221;SDS011;26952;42.884;23.918;2023-03-07T15:17:04;3.40;;;3.10;;
41221;SDS011;26952;42.884;23.918;2023-03-07T15:19:38;3.53;;;3.22;;
41221;SDS011;26952;42.884;23.918;2023-03-07T15:22:13;3.33;;;3.08;;
41221;SDS011;26952;42.884;23.918;2023-03-07T15:24:49;3.53;;;3.08;;
41221;SDS011;26952;42.884;23.918;2023-03-07T15:27:22;3.23;;;3.03;;
41221;SDS011;26952;42.884;23.918;2023-03-07T15:29:50;3.25;;;3.03;;
41221;SDS011;26952;42.884;23.918;2023-03-07T15:35:15;3.90;;;3.60;;
41221;SDS011;26952;42.884;23.918;2023-03-07T15:42:52;6.28;;;5.32;;
41221;SDS011;26952;42.884;23.918;2023-03-07T15:51:17;7.35;;;6.80;;
41221;SDS011;26952;42.884;23.918;2023-03-07T15:53:47;7.43;;;7.03;;
41221;SDS011;26952;42.884;23.918;2023-03-07T15:58:50;6.28;;;4.47;;
41221;SDS011;26952;42.884;23.918;2023-03-07T16:01:20;4.67;;;4.37;;
41221;SDS011;26952;42.884;23.918;2023-03-07T16:03:51;4.50;;;4.18;;
41221;SDS011;26952;42.884;23.918;2023-03-07T16:06:43;3.97;;;3.67;;
41221;SDS011;26952;42.884;23.918;2023-03-07T16:09:14;5.32;;;3.10;;
41221;SDS011;26952;42.884;23.918;2023-03-07T16:11:41;4.03;;;3.50;;
41221;SDS011;26952;42.884;23.918;2023-03-07T16:16:50;6.28;;;4.25;;
41221;SDS011;26952;42.884;23.918;2023-03-07T16:19:17;4.75;;;4.32;;
41221;SDS011;26952;42.884;23.918;2023-03-07T16:21:42;5.75;;;5.30;;
41221;SDS011;26952;42.884;23.918;2023-03-07T16:24:08;4.65;;;4.35;;
41221;SDS011;26952;42.884;23.918;2023-03-07T16:26:33;4.93;;;4.43;;
41221;SDS011;26952;42.884;23.918;2023-03-07T16:28:59;4.63;;;4.05;;
41221;SDS011;26952;42.884;23.918;2023-03-07T16:31:25;4.05;;;3.75;;
41221;SDS011;26952;42.884;23.918;2023-03-07T16:33:51;5.03;;;3.47;;
41221;SDS011;26952;42.884;23.918;2023-03-07T16:36:16;5.03;;;3.53;;
41221;SDS011;26952;42.884;23.918;2023-03-07T16:38:42;3.53;;;3.22;;
41221;SDS011;26952;42.884;23.918;2023-03-07T16:41:10;4.18;;;3.83;;
41221;SDS011;26952;42.884;23.918;2023-03-07T16:43:43;3.95;;;3.65;;
41221;SDS011;26952;42.884;23.918;2023-03-07T16:46:11;3.72;;;3.38;;
41221;SDS011;26952;42.884;23.918;2023-03-07T16:48:39;3.47;;;3.17;;
41221;SDS011;26952;42.884;23.918;2023-03-07T16:51:07;3.53;;;3.33;;
41221;SDS011;26952;42.884;23.918;2023-03-07T16:53:40;3.95;;;3.65;;
41221;SDS011;26952;42.884;23.918;2023-03-07T16:56:07;6.10;;;4.30;;
41221;SDS011;26952;42.884;23.918;2023-03-07T16:58:37;4.97;;;4.57;;
41221;SDS011;26952;42.884;23.918;2023-03-07T17:01:03;6.28;;;5.78;;
41221;SDS011;26952;42.884;23.918;2023-03-07T17:03:28;7.00;;;6.57;;
41221;SDS011;26952;42.884;23.918;2023-03-07T17:05:54;6.97;;;6.47;;
41221;SDS011;26952;42.884;23.918;2023-03-07T17:08:20;6.78;;;6.22;;
41221;SDS011;26952;42.884;23.918;2023-03-07T17:10:45;5.70;;;5.30;;
41221;SDS011;26952;42.884;23.918;2023-03-07T17:13:12;7.10;;;6.50;;
41221;SDS011;26952;42.884;23.918;2023-03-07T17:15:40;7.93;;;7.30;;
41221;SDS011;26952;42.884;23.918;2023-03-07T17:18:06;9.05;;;8.55;;
41221;SDS011;26952;42.884;23.918;2023-03-07T17:20:32;8.32;;;7.88;;
41221;SDS011;26952;42.884;23.918;2023-03-07T17:22:58;9.40;;;8.65;;
41221;SDS011;26952;42.884;23.918;2023-03-07T17:25:24;8.93;;;8.38;;
41221;SDS011;26952;42.884;23.918;2023-03-07T17:27:52;8.25;;;7.75;;